Time;durP1;ratioP1;P1;durP2;ratioP2;P2;SDS_P1;SDS_P2;PMS_P1;PMS_P2;Temp;Humidity;BMP_temperature;BMP_pressure;BME280_temperature;BME280_humidity;BME280_pressure;Samples;Min_cycle;Max_cycle;Signal;HPM_P1;HPM_P2
2021/12/15 00:02:26;;;;;;;460.35;102.35;;;;;;;;;;4921687;29;20108;-76
2021/12/15 00:04:55;;;;;;;466.33;100.70;;;;;;;;;;4920194;29;20520;-75
2021/12/15 00:07:22;;;;;;;618.30;120.57;;;;;;;;;;4920366;29;20490;-75
2021/12/15 00:09:49;;;;;;;443.55;105.30;;;;;;;;;;4904291;29;20028;-76
2021/12/15 00:12:15;;;;;;;550.80;111.38;;;;;;;;;;4928908;29;20028;-75
2021/12/15 00:14:46;;;;;;;663.53;117.28;;;;;;;;;;4922213;29;20025;-76
2021/12/15 00:17:12;;;;;;;1006.45;138.90;;;;;;;;;;4922381;29;20028;-76
2021/12/15 00:19:38;;;;;;;592.97;113.75;;;;;;;;;;4921639;29;20039;-76
2021/12/15 00:22:04;;;;;;;802.95;134.65;;;;;;;;;;4920491;29;20028;-75
2021/12/15 00:24:35;;;;;;;501.73;116.70;;;;;;;;;;4919853;29;20106;-75
2021/12/15 00:27:01;;;;;;;448.85;124.25;;;;;;;;;;4919696;29;20537;-75
2021/12/15 00:29:29;;;;;;;463.92;120.40;;;;;;;;;;4919180;29;20094;-76
2021/12/15 00:31:56;;;;;;;632.22;143.55;;;;;;;;;;4919779;29;20483;-76
2021/12/15 00:34:23;;;;;;;484.35;122.15;;;;;;;;;;4921043;29;20393;-76
2021/12/15 00:36:49;;;;;;;361.95;101.18;;;;;;;;;;4920862;29;20028;-75
2021/12/15 00:39:20;;;;;;;344.30;97.22;;;;;;;;;;4921855;29;20095;-76
2021/12/15 00:41:46;;;;;;;284.80;83.68;;;;;;;;;;4905021;29;20398;-76
2021/12/15 00:44:12;;;;;;;244.82;75.50;;;;;;;;;;4922434;29;20095;-76
2021/12/15 00:46:38;;;;;;;245.57;71.93;;;;;;;;;;4926642;29;20470;-75
2021/12/15 00:49:05;;;;;;;218.73;67.05;;;;;;;;;;4922759;29;20119;-75
2021/12/15 00:51:31;;;;;;;247.15;71.15;;;;;;;;;;4924934;29;20039;-76
2021/12/15 00:53:57;;;;;;;317.65;81.40;;;;;;;;;;4924864;29;20401;-76
2021/12/15 00:56:27;;;;;;;207.23;67.20;;;;;;;;;;4925869;29;20520;-76
2021/12/15 00:58:53;;;;;;;192.68;65.75;;;;;;;;;;4925441;29;20020;-76
2021/12/15 01:01:19;;;;;;;224.63;68.07;;;;;;;;;;4923161;29;20028;-76
2021/12/15 01:03:45;;;;;;;187.00;61.95;;;;;;;;;;4924016;29;20024;-76
2021/12/15 01:06:16;;;;;;;200.90;62.55;;;;;;;;;;4922279;29;20056;-75
2021/12/15 01:08:48;;;;;;;191.52;60.45;;;;;;;;;;4921978;29;20048;-75
2021/12/15 01:11:31;;;;;;;198.30;64.40;;;;;;;;;;4919866;29;20048;-75
2021/12/15 01:19:48;;;;;;;150.68;54.97;;;;;;;;;;4924984;29;20044;-76
2021/12/15 01:22:18;;;;;;;159.07;57.20;;;;;;;;;;4911577;29;20475;-76
2021/12/15 01:24:44;;;;;;;143.38;53.78;;;;;;;;;;4931399;29;20036;-75
2021/12/15 01:27:10;;;;;;;148.85;53.63;;;;;;;;;;4931049;29;20047;-76
2021/12/15 01:29:50;;;;;;;192.55;60.03;;;;;;;;;;4932870;29;20028;-76
2021/12/15 01:32:16;;;;;;;157.85;57.42;;;;;;;;;;4930860;29;20068;-76
2021/12/15 01:34:42;;;;;;;140.02;52.05;;;;;;;;;;4934231;29;20036;-76
2021/12/15 01:37:09;;;;;;;149.27;57.40;;;;;;;;;;4928959;29;20071;-75
2021/12/15 01:39:36;;;;;;;159.98;54.80;;;;;;;;;;4931335;29;20060;-76
2021/12/15 01:42:05;;;;;;;164.13;57.15;;;;;;;;;;4931257;29;20015;-76
2021/12/15 01:47:01;;;;;;;158.80;57.53;;;;;;;;;;4936284;29;20123;-75
2021/12/15 01:49:29;;;;;;;157.45;57.50;;;;;;;;;;4920417;29;20028;-76
2021/12/15 01:51:57;;;;;;;165.80;55.58;;;;;;;;;;4924100;29;20024;-75
2021/12/15 01:54:23;;;;;;;156.48;54.17;;;;;;;;;;4919510;29;20047;-76
2021/12/15 01:56:50;;;;;;;199.35;54.90;;;;;;;;;;4923075;29;20020;-75
2021/12/15 01:59:18;;;;;;;209.52;62.08;;;;;;;;;;4923211;29;20078;-73
2021/12/15 02:01:45;;;;;;;199.05;63.05;;;;;;;;;;4921683;29;20031;-73
2021/12/15 02:04:16;;;;;;;206.23;58.25;;;;;;;;;;4921099;29;20039;-72
2021/12/15 02:06:45;;;;;;;179.75;56.72;;;;;;;;;;4922967;29;20078;-73
2021/12/15 02:09:12;;;;;;;216.30;64.65;;;;;;;;;;4920904;29;20060;-73
2021/12/15 02:11:38;;;;;;;202.02;61.83;;;;;;;;;;4916325;29;20364;-73
2021/12/15 02:14:05;;;;;;;210.95;63.40;;;;;;;;;;4921996;29;20034;-73
2021/12/15 02:16:31;;;;;;;213.70;64.95;;;;;;;;;;4919776;29;20031;-73
2021/12/15 02:18:57;;;;;;;220.50;62.30;;;;;;;;;;4920090;29;20036;-73
2021/12/15 02:21:25;;;;;;;216.43;63.13;;;;;;;;;;4923612;29;20028;-73
2021/12/15 02:23:54;;;;;;;263.35;63.53;;;;;;;;;;4921928;29;20028;-73
2021/12/15 02:26:24;;;;;;;221.10;67.13;;;;;;;;;;4921548;29;20087;-73
2021/12/15 02:28:52;;;;;;;256.90;66.70;;;;;;;;;;4920253;29;20035;-73
2021/12/15 02:32:14;;;;;;;265.83;62.78;;;;;;;;;;4918831;29;20024;-73
2021/12/15 02:39:35;;;;;;;206.85;62.63;;;;;;;;;;4925147;29;20055;-75
2021/12/15 02:42:01;;;;;;;261.08;68.07;;;;;;;;;;4927248;29;20024;-75
2021/12/15 02:44:27;;;;;;;223.13;59.58;;;;;;;;;;4926473;29;20107;-75
2021/12/15 02:46:54;;;;;;;246.38;65.65;;;;;;;;;;4919120;29;20083;-76
2021/12/15 02:49:30;;;;;;;226.05;58.67;;;;;;;;;;4928128;29;20028;-75
2021/12/15 02:51:58;;;;;;;189.73;50.58;;;;;;;;;;4923810;29;20032;-75
2021/12/15 02:54:25;;;;;;;179.93;49.28;;;;;;;;;;4918991;29;20044;-75
2021/12/15 02:56:53;;;;;;;165.15;44.40;;;;;;;;;;4920260;29;20024;-76
2021/12/15 02:59:23;;;;;;;159.88;41.00;;;;;;;;;;4925883;29;20099;-76
2021/12/15 03:15:36;;;;;;;181.85;51.53;;;;;;;;;;4834392;29;20088;-75
2021/12/15 03:18:31;;;;;;;203.43;50.25;;;;;;;;;;4835204;29;20117;-76
2021/12/15 03:21:03;;;;;;;180.88;48.05;;;;;;;;;;4793076;29;20051;-75
2021/12/15 03:23:40;;;;;;;317.40;53.90;;;;;;;;;;4808812;29;20501;-76
2021/12/15 03:26:06;;;;;;;197.30;50.95;;;;;;;;;;4804441;29;20446;-75
2021/12/15 03:34:26;;;;;;;183.50;49.85;;;;;;;;;;4807318;29;20455;-76
2021/12/15 03:39:26;;;;;;;212.20;46.13;;;;;;;;;;4806429;29;20078;-76
2021/12/15 03:41:59;;;;;;;171.73;44.60;;;;;;;;;;4805831;29;20449;-75
2021/12/15 03:44:26;;;;;;;;;;;;;;;;;;4851330;29;20021;-75
2021/12/15 03:46:52;;;;;;;195.38;40.38;;;;;;;;;;4860103;29;19927;-75
2021/12/15 03:49:18;;;;;;;230.23;47.80;;;;;;;;;;4859789;29;20528;-76
2021/12/15 03:51:44;;;;;;;151.77;44.45;;;;;;;;;;4860532;29;20057;-76
2021/12/15 03:54:11;;;;;;;175.45;45.72;;;;;;;;;;4860363;29;20268;-75
2021/12/15 03:56:40;;;;;;;296.75;46.17;;;;;;;;;;4871920;29;20405;-75
2021/12/15 03:59:07;;;;;;;282.48;44.97;;;;;;;;;;4919230;29;20078;-75
2021/12/15 04:01:33;;;;;;;152.55;43.08;;;;;;;;;;4918811;29;20386;-75
2021/12/15 04:04:01;;;;;;;293.23;45.78;;;;;;;;;;4918539;29;20485;-76
2021/12/15 04:06:30;;;;;;;236.60;43.55;;;;;;;;;;4918484;29;20036;-75
2021/12/15 04:08:57;;;;;;;150.50;41.60;;;;;;;;;;4920171;29;20039;-74
2021/12/15 04:11:25;;;;;;;186.52;43.38;;;;;;;;;;4924877;29;20040;-76
2021/12/15 04:13:59;;;;;;;138.95;38.17;;;;;;;;;;4917940;29;20020;-76
2021/12/15 04:16:58;;;;;;;151.88;41.35;;;;;;;;;;4915680;29;20029;-75
2021/12/15 04:19:14;;;;;;;163.70;41.92;;;;;;;;;;4880387;29;20040;-75
2021/12/15 04:21:41;;;;;;;122.05;37.17;;;;;;;;;;4875523;29;20052;-75
2021/12/15 04:24:12;;;;;;;148.07;40.90;;;;;;;;;;4876413;29;20049;-76
2021/12/15 04:26:38;;;;;;;161.15;40.78;;;;;;;;;;4879227;29;20100;-75
2021/12/15 04:29:05;;;;;;;166.93;42.55;;;;;;;;;;4882255;29;20052;-76
2021/12/15 04:31:35;;;;;;;170.45;40.97;;;;;;;;;;4870983;29;20041;-75
2021/12/15 04:34:04;;;;;;;163.18;42.08;;;;;;;;;;4882702;29;20182;-75
2021/12/15 04:36:35;;;;;;;197.95;44.53;;;;;;;;;;4885609;29;20047;-76
2021/12/15 04:39:04;;;;;;;181.50;44.72;;;;;;;;;;4880052;29;20495;-75
2021/12/15 04:41:31;;;;;;;151.98;45.03;;;;;;;;;;4878162;29;20037;-75
2021/12/15 04:44:00;;;;;;;161.85;44.13;;;;;;;;;;4879886;29;20041;-75
2021/12/15 04:46:27;;;;;;;153.20;43.78;;;;;;;;;;4862318;29;20080;-75
2021/12/15 04:48:54;;;;;;;152.32;44.92;;;;;;;;;;4878959;29;20043;-75
2021/12/15 04:51:20;;;;;;;167.73;45.95;;;;;;;;;;4880248;29;20033;-75
2021/12/15 04:53:47;;;;;;;164.25;46.45;;;;;;;;;;4887980;29;20112;-75
2021/12/15 04:56:13;;;;;;;174.00;45.88;;;;;;;;;;4888936;29;20032;-75
2021/12/15 04:58:40;;;;;;;217.43;47.55;;;;;;;;;;4902391;29;20418;-75
2021/12/15 05:01:08;;;;;;;177.25;45.95;;;;;;;;;;4902235;29;20470;-76
2021/12/15 05:03:35;;;;;;;144.27;44.92;;;;;;;;;;4901862;29;20486;-75
2021/12/15 05:06:01;;;;;;;232.75;48.88;;;;;;;;;;4902087;29;20036;-76
2021/12/15 05:08:27;;;;;;;233.60;49.33;;;;;;;;;;4904495;29;20482;-75
2021/12/15 05:10:57;;;;;;;209.70;51.45;;;;;;;;;;4905106;29;20128;-75
2021/12/15 05:13:23;;;;;;;224.00;48.60;;;;;;;;;;4903647;29;20112;-75
2021/12/15 05:15:50;;;;;;;195.07;49.65;;;;;;;;;;4898888;29;20048;-75
2021/12/15 05:18:19;;;;;;;204.25;47.75;;;;;;;;;;4900988;29;20041;-75
2021/12/15 05:20:47;;;;;;;168.57;49.22;;;;;;;;;;4914535;29;20040;-75
2021/12/15 05:23:15;;;;;;;217.32;49.58;;;;;;;;;;4905718;29;20045;-76
2021/12/15 05:25:41;;;;;;;227.73;52.85;;;;;;;;;;4899824;29;20451;-76
2021/12/15 05:28:08;;;;;;;235.13;55.70;;;;;;;;;;4904101;29;20040;-76
2021/12/15 05:30:34;;;;;;;163.85;48.90;;;;;;;;;;4906724;29;20035;-76
2021/12/15 05:33:00;;;;;;;176.57;52.08;;;;;;;;;;4919752;29;20086;-75
2021/12/15 05:35:27;;;;;;;189.32;48.38;;;;;;;;;;4922612;29;20086;-74
2021/12/15 05:37:55;;;;;;;219.52;48.25;;;;;;;;;;4922870;29;20032;-74
2021/12/15 05:40:22;;;;;;;233.82;51.38;;;;;;;;;;4927572;29;20005;-75
2021/12/15 05:42:48;;;;;;;311.92;53.33;;;;;;;;;;4923129;29;20032;-75
2021/12/15 05:45:14;;;;;;;236.30;53.47;;;;;;;;;;4924035;29;20036;-75
2021/12/15 05:47:41;;;;;;;285.80;56.83;;;;;;;;;;4925217;29;20026;-75
2021/12/15 05:50:09;;;;;;;236.48;51.38;;;;;;;;;;4903579;29;20054;-74
2021/12/15 05:52:36;;;;;;;229.25;51.53;;;;;;;;;;4926399;29;20028;-75
2021/12/15 05:55:05;;;;;;;222.68;51.00;;;;;;;;;;4915569;29;20651;-77
2021/12/15 05:57:31;;;;;;;297.20;58.30;;;;;;;;;;4914008;29;20047;-75
2021/12/15 05:59:57;;;;;;;297.45;60.60;;;;;;;;;;4915309;29;20028;-74
2021/12/15 06:02:23;;;;;;;253.88;57.47;;;;;;;;;;4916564;29;20107;-75
2021/12/15 06:04:49;;;;;;;207.02;54.40;;;;;;;;;;4918523;29;20024;-75
2021/12/15 06:07:15;;;;;;;251.38;52.50;;;;;;;;;;4919500;29;20036;-74
2021/12/15 06:09:41;;;;;;;215.48;52.42;;;;;;;;;;4918959;29;20035;-76
2021/12/15 06:12:08;;;;;;;219.18;53.08;;;;;;;;;;4918721;29;20110;-75
2021/12/15 06:14:35;;;;;;;206.40;53.40;;;;;;;;;;4918947;29;20031;-76
2021/12/15 06:17:03;;;;;;;241.15;56.15;;;;;;;;;;4922275;29;20447;-77
2021/12/15 06:19:29;;;;;;;238.55;55.00;;;;;;;;;;4924270;29;20127;-79
2021/12/15 06:21:55;;;;;;;202.25;53.28;;;;;;;;;;4930965;29;20162;-76
2021/12/15 06:24:21;;;;;;;179.02;48.55;;;;;;;;;;4926189;29;20028;-76
2021/12/15 06:26:49;;;;;;;190.68;46.72;;;;;;;;;;4926239;29;20036;-76
2021/12/15 06:29:15;;;;;;;216.23;52.08;;;;;;;;;;4923356;29;20115;-75
2021/12/15 06:31:41;;;;;;;173.80;51.03;;;;;;;;;;4928494;29;20036;-71
2021/12/15 06:34:07;;;;;;;177.50;48.75;;;;;;;;;;4932772;29;20066;-70
2021/12/15 06:36:34;;;;;;;164.00;51.10;;;;;;;;;;4932602;29;20028;-75
2021/12/15 06:39:03;;;;;;;151.63;48.47;;;;;;;;;;4932537;29;20016;-79
2021/12/15 06:41:30;;;;;;;169.30;48.42;;;;;;;;;;4929166;29;20035;-80
2021/12/15 06:44:16;;;;;;;164.43;48.78;;;;;;;;;;4937396;29;20024;-78
2021/12/15 07:00:20;;;;;;;218.77;63.25;;;;;;;;;;4924155;29;20038;-77
2021/12/15 07:02:46;;;;;;;207.52;54.25;;;;;;;;;;4927609;29;20106;-75
2021/12/15 07:05:35;;;;;;;197.70;54.50;;;;;;;;;;4926112;29;20043;-79
2021/12/15 07:08:02;;;;;;;175.57;53.60;;;;;;;;;;4930324;29;20079;-76
2021/12/15 07:10:30;;;;;;;215.40;51.75;;;;;;;;;;4921621;29;20036;-75
2021/12/15 07:12:57;;;;;;;254.70;49.25;;;;;;;;;;4933700;29;20035;-79
2021/12/15 07:15:59;;;;;;;219.70;48.72;;;;;;;;;;4924316;29;20040;-80
2021/12/15 07:18:48;;;;;;;184.52;47.75;;;;;;;;;;5146990;23;20044;-78
2021/12/15 07:21:33;;;;;;;317.08;49.17;;;;;;;;;;4940900;28;20060;-77
2021/12/15 07:24:00;;;;;;;212.95;50.92;;;;;;;;;;4925217;29;20028;-75
2021/12/15 07:26:26;;;;;;;224.45;47.35;;;;;;;;;;4905843;29;20032;-76
2021/12/15 07:28:54;;;;;;;211.25;45.92;;;;;;;;;;4910946;29;20047;-73
2021/12/15 07:31:20;;;;;;;281.73;53.72;;;;;;;;;;4909223;29;20450;-76
2021/12/15 07:33:47;;;;;;;304.45;51.38;;;;;;;;;;4899536;29;20029;-75
2021/12/15 07:36:13;;;;;;;201.10;46.50;;;;;;;;;;4899256;29;20021;-75
2021/12/15 07:38:41;;;;;;;191.10;46.13;;;;;;;;;;4905785;29;20028;-75
2021/12/15 07:41:09;;;;;;;133.70;41.22;;;;;;;;;;4912300;29;20017;-73
2021/12/15 07:43:35;;;;;;;174.77;46.60;;;;;;;;;;4899649;29;20028;-75
2021/12/15 07:46:05;;;;;;;224.45;46.55;;;;;;;;;;4902044;29;20036;-74
2021/12/15 07:48:36;;;;;;;149.38;42.33;;;;;;;;;;4902408;29;20044;-74
2021/12/15 07:51:04;;;;;;;199.88;47.65;;;;;;;;;;4906629;29;20493;-73
2021/12/15 07:53:30;;;;;;;157.07;46.42;;;;;;;;;;4892858;29;20050;-75
2021/12/15 07:55:56;;;;;;;135.88;41.28;;;;;;;;;;4901548;29;20032;-77
2021/12/15 07:58:23;;;;;;;120.03;39.45;;;;;;;;;;4907762;29;20033;-75
2021/12/15 08:00:50;;;;;;;131.52;40.05;;;;;;;;;;4890393;29;20128;-75
2021/12/15 08:03:17;;;;;;;125.35;36.35;;;;;;;;;;4887533;29;20124;-73
2021/12/15 08:05:44;;;;;;;141.40;39.80;;;;;;;;;;4909679;29;20024;-79
2021/12/15 08:08:10;;;;;;;126.63;39.90;;;;;;;;;;4903255;29;20041;-73
2021/12/15 08:10:36;;;;;;;147.15;43.53;;;;;;;;;;4902983;29;20167;-74
2021/12/15 08:13:03;;;;;;;137.00;42.35;;;;;;;;;;4908790;29;20035;-74
2021/12/15 08:15:29;;;;;;;141.27;42.58;;;;;;;;;;4896340;29;20029;-75
2021/12/15 08:17:55;;;;;;;165.40;43.47;;;;;;;;;;4896648;29;20111;-73
2021/12/15 08:20:23;;;;;;;132.57;41.03;;;;;;;;;;4902587;29;20032;-74
2021/12/15 08:22:49;;;;;;;158.52;53.72;;;;;;;;;;4900782;29;20032;-74
2021/12/15 08:25:16;;;;;;;120.45;40.42;;;;;;;;;;4915631;29;20119;-72
2021/12/15 08:27:43;;;;;;;127.97;41.17;;;;;;;;;;4901032;29;20119;-73
2021/12/15 08:30:11;;;;;;;107.47;38.58;;;;;;;;;;4902791;29;20052;-75
2021/12/15 08:32:37;;;;;;;107.60;40.65;;;;;;;;;;4910444;29;20039;-74
2021/12/15 08:35:04;;;;;;;120.90;41.08;;;;;;;;;;4901334;29;20020;-74
2021/12/15 08:37:31;;;;;;;133.52;43.22;;;;;;;;;;4898610;29;20093;-76
2021/12/15 08:39:57;;;;;;;134.90;44.33;;;;;;;;;;4904583;29;20033;-73
2021/12/15 08:42:24;;;;;;;142.80;51.10;;;;;;;;;;4910998;29;20039;-76
2021/12/15 08:44:50;;;;;;;128.88;45.90;;;;;;;;;;4901494;29;20391;-74
2021/12/15 08:47:16;;;;;;;113.18;41.97;;;;;;;;;;4908604;29;20047;-74
2021/12/15 08:49:42;;;;;;;100.95;40.70;;;;;;;;;;4908709;29;20032;-73
2021/12/15 08:52:08;;;;;;;105.20;40.03;;;;;;;;;;4898104;29;20056;-78
2021/12/15 08:54:34;;;;;;;110.32;42.05;;;;;;;;;;4902637;29;20024;-76
2021/12/15 08:57:01;;;;;;;142.45;59.53;;;;;;;;;;4900136;29;20029;-76
2021/12/15 08:59:27;;;;;;;136.10;50.83;;;;;;;;;;4908180;29;20072;-74
2021/12/15 09:01:53;;;;;;;118.97;47.08;;;;;;;;;;4907564;29;20028;-74
2021/12/15 09:04:19;;;;;;;112.20;48.13;;;;;;;;;;4899993;29;20088;-73
2021/12/15 09:06:46;;;;;;;101.15;45.97;;;;;;;;;;4911549;29;20048;-75
2021/12/15 09:09:14;;;;;;;94.75;43.83;;;;;;;;;;4900468;29;20021;-75
2021/12/15 09:11:40;;;;;;;104.68;46.13;;;;;;;;;;4898216;29;20056;-76
2021/12/15 09:14:07;;;;;;;94.45;41.92;;;;;;;;;;4899366;29;20025;-72
2021/12/15 09:16:35;;;;;;;98.50;46.10;;;;;;;;;;4899692;29;20033;-72
2021/12/15 09:19:02;;;;;;;104.65;45.13;;;;;;;;;;4898223;29;20048;-75
2021/12/15 09:21:29;;;;;;;100.78;40.58;;;;;;;;;;4904226;29;20028;-73
2021/12/15 09:23:56;;;;;;;113.32;45.03;;;;;;;;;;4896425;29;20045;-73
2021/12/15 09:26:22;;;;;;;114.25;47.83;;;;;;;;;;4899103;29;20394;-74
2021/12/15 09:28:49;;;;;;;109.22;47.72;;;;;;;;;;4898248;29;20107;-74
2021/12/15 09:31:16;;;;;;;110.80;49.47;;;;;;;;;;4899425;29;20100;-75
2021/12/15 09:33:44;;;;;;;106.05;48.92;;;;;;;;;;4904430;29;20028;-76
2021/12/15 09:36:12;;;;;;;100.60;49.58;;;;;;;;;;4897614;29;20395;-74
2021/12/15 09:38:39;;;;;;;110.93;50.28;;;;;;;;;;4906799;29;20040;-74
2021/12/15 10:03:44;;;;;;;103.85;41.78;;;;;;;;;;4860988;29;20178;-76
2021/12/15 10:06:19;;;;;;;94.78;34.45;;;;;;;;;;4861563;29;20065;-75
2021/12/15 10:12:17;;;;;;;85.43;39.15;;;;;;;;;;4684249;26;20050;-77
2021/12/15 10:18:12;;;;;;;91.75;44.35;;;;;;;;;;4982380;28;20067;-80
2021/12/15 10:24:04;;;;;;;80.65;41.50;;;;;;;;;;4997746;23;20127;-79
2021/12/15 10:32:36;;;;;;;150.52;77.75;;;;;;;;;;5332198;23;20303;-76
2021/12/15 10:35:08;;;;;;;140.93;78.00;;;;;;;;;;4901013;29;20051;-76
2021/12/15 10:37:34;;;;;;;100.35;52.95;;;;;;;;;;4917629;29;20156;-73
2021/12/15 10:40:20;;;;;;;115.35;67.88;;;;;;;;;;4917046;29;20040;-73
2021/12/15 10:42:47;;;;;;;110.68;64.30;;;;;;;;;;4924604;29;20039;-74
2021/12/15 10:45:15;;;;;;;87.22;52.20;;;;;;;;;;4931901;29;20020;-73
2021/12/15 10:47:49;;;;;;;85.22;53.78;;;;;;;;;;4919577;29;20508;-76
2021/12/15 10:50:17;;;;;;;74.35;42.53;;;;;;;;;;4926837;29;20052;-74
2021/12/15 10:52:51;;;;;;;77.00;44.42;;;;;;;;;;4928788;29;20032;-74
2021/12/15 10:55:17;;;;;;;71.82;39.58;;;;;;;;;;4909130;29;20020;-74
2021/12/15 10:57:44;;;;;;;77.57;41.38;;;;;;;;;;4927583;29;20039;-76
2021/12/15 11:00:13;;;;;;;71.45;42.83;;;;;;;;;;4906548;29;20028;-73
2021/12/15 11:02:39;;;;;;;82.07;44.10;;;;;;;;;;4932473;29;20107;-75
2021/12/15 11:05:08;;;;;;;83.70;51.47;;;;;;;;;;4923560;29;20028;-72
2021/12/15 11:07:37;;;;;;;65.57;38.55;;;;;;;;;;4930691;29;20035;-76
2021/12/15 11:10:11;;;;;;;64.60;36.85;;;;;;;;;;4916206;29;20024;-76
2021/12/15 11:12:37;;;;;;;59.53;34.17;;;;;;;;;;4928270;29;20076;-76
2021/12/15 11:15:18;;;;;;;62.58;38.22;;;;;;;;;;4930474;29;20028;-76
2021/12/15 11:18:10;;;;;;;66.72;36.67;;;;;;;;;;4922039;29;20028;-73
2021/12/15 11:20:39;;;;;;;57.55;36.20;;;;;;;;;;4918610;29;20063;-75
2021/12/15 11:23:05;;;;;;;61.42;35.83;;;;;;;;;;4927313;29;20028;-73
2021/12/15 11:25:31;;;;;;;65.20;37.80;;;;;;;;;;4926239;29;20032;-75
2021/12/15 11:28:02;;;;;;;67.22;38.58;;;;;;;;;;4907685;29;20051;-77
2021/12/15 11:30:48;;;;;;;72.22;41.15;;;;;;;;;;4923665;29;20032;-78
2021/12/15 11:33:20;;;;;;;78.78;43.53;;;;;;;;;;4920790;29;20511;-76
2021/12/15 11:35:53;;;;;;;87.47;48.15;;;;;;;;;;4917859;29;20040;-76
2021/12/15 11:38:27;;;;;;;91.25;49.20;;;;;;;;;;4928883;29;20027;-78
2021/12/15 11:41:21;;;;;;;83.05;44.15;;;;;;;;;;4916624;29;20115;-78
2021/12/15 11:43:52;;;;;;;92.97;46.35;;;;;;;;;;4912442;29;20036;-78
2021/12/15 11:46:42;;;;;;;81.03;44.75;;;;;;;;;;4916022;29;20372;-78
2021/12/15 11:49:14;;;;;;;99.05;54.63;;;;;;;;;;4934904;29;20502;-77
2021/12/15 11:51:46;;;;;;;78.55;43.45;;;;;;;;;;4884198;29;20042;-77
2021/12/15 11:54:17;;;;;;;72.43;39.65;;;;;;;;;;4927811;29;20040;-77
2021/12/15 11:56:43;;;;;;;80.75;44.42;;;;;;;;;;4909146;29;20087;-76
2021/12/15 12:01:49;;;;;;;90.13;49.60;;;;;;;;;;5476654;23;20063;-77
2021/12/15 12:10:11;;;;;;;59.75;33.42;;;;;;;;;;5784836;23;20032;-80
2021/12/15 12:22:39;;;;;;;59.97;33.25;;;;;;;;;;5373949;23;20055;-78
2021/12/15 12:25:11;;;;;;;64.13;35.13;;;;;;;;;;4916844;29;20178;-78
2021/12/15 12:27:37;;;;;;;60.08;32.80;;;;;;;;;;4932148;29;20046;-79
2021/12/15 12:30:19;;;;;;;67.00;35.00;;;;;;;;;;4937757;29;20031;-79
2021/12/15 12:33:31;;;;;;;74.30;36.75;;;;;;;;;;4941357;29;20038;-79
2021/12/15 12:41:33;;;;;;;72.75;39.50;;;;;;;;;;5097794;23;20193;-77
2021/12/15 13:05:29;;;;;;;77.70;41.95;;;;;;;;;;5404961;23;20517;-76
2021/12/15 13:08:03;;;;;;;84.25;44.85;;;;;;;;;;4929833;29;20074;-78
2021/12/15 13:10:49;;;;;;;94.57;48.42;;;;;;;;;;4951740;29;20080;-76
2021/12/15 13:13:20;;;;;;;93.28;51.30;;;;;;;;;;4946819;29;20107;-78
2021/12/15 13:15:56;;;;;;;92.32;49.00;;;;;;;;;;4930833;28;20040;-77
2021/12/15 13:19:09;;;;;;;92.20;49.38;;;;;;;;;;4957265;29;20019;-79
2021/12/15 13:33:52;;;;;;;164.82;88.10;;;;;;;;;;5001915;23;20083;-77
2021/12/15 13:36:26;;;;;;;121.40;61.40;;;;;;;;;;4867633;29;20044;-78
2021/12/15 13:38:57;;;;;;;101.55;56.63;;;;;;;;;;5014209;23;20138;-75
2021/12/15 13:41:41;;;;;;;84.53;49.67;;;;;;;;;;4916751;29;20027;-75
2021/12/15 13:44:29;;;;;;;93.25;52.00;;;;;;;;;;4932427;29;20024;-74
2021/12/15 13:46:59;;;;;;;94.50;50.22;;;;;;;;;;4939710;29;20064;-74
2021/12/15 13:49:28;;;;;;;100.47;54.83;;;;;;;;;;4943847;29;20036;-75
2021/12/15 13:51:54;;;;;;;99.13;53.25;;;;;;;;;;4928140;29;20016;-74
2021/12/15 13:54:40;;;;;;;102.22;54.60;;;;;;;;;;4933111;29;20162;-76
2021/12/15 13:57:13;;;;;;;100.85;55.65;;;;;;;;;;4930370;29;20021;-77
2021/12/15 14:00:10;;;;;;;107.97;56.80;;;;;;;;;;4931909;29;20071;-76
2021/12/15 14:03:00;;;;;;;86.32;48.58;;;;;;;;;;4909171;29;20037;-76
2021/12/15 14:05:46;;;;;;;113.72;61.28;;;;;;;;;;4893564;29;20131;-77
2021/12/15 14:08:34;;;;;;;108.22;58.08;;;;;;;;;;4900123;29;20053;-81
2021/12/15 14:11:27;;;;;;;93.60;52.67;;;;;;;;;;4881843;29;20051;-79
2021/12/15 14:14:05;;;;;;;99.15;51.75;;;;;;;;;;4893509;29;20030;-76
2021/12/15 14:16:53;;;;;;;92.53;51.50;;;;;;;;;;4894002;29;20504;-80
2021/12/15 14:19:48;;;;;;;99.93;54.45;;;;;;;;;;4884198;29;20101;-78
2021/12/15 14:22:34;;;;;;;87.60;49.20;;;;;;;;;;4820687;29;20094;-74
2021/12/15 14:25:02;;;;;;;83.22;49.28;;;;;;;;;;4810910;29;20038;-73
2021/12/15 14:27:30;;;;;;;83.25;48.50;;;;;;;;;;4806682;29;20181;-74
2021/12/15 14:29:59;;;;;;;99.95;56.50;;;;;;;;;;4803668;29;20039;-76
2021/12/15 14:32:59;;;;;;;89.53;51.13;;;;;;;;;;4824476;29;20094;-79
2021/12/15 14:35:28;;;;;;;106.70;62.83;;;;;;;;;;4814336;29;20094;-79
2021/12/15 14:41:14;;;;;;;130.50;78.05;;;;;;;;;;4809271;29;20058;-75
2021/12/15 14:43:43;;;;;;;126.18;72.70;;;;;;;;;;4805766;29;20035;-73
2021/12/15 14:46:17;;;;;;;106.05;63.50;;;;;;;;;;4804486;29;20038;-73
2021/12/15 14:48:46;;;;;;;96.55;55.88;;;;;;;;;;4804840;29;20049;-78
2021/12/15 14:51:30;;;;;;;92.88;54.90;;;;;;;;;;4826947;29;20494;-79
2021/12/15 14:53:58;;;;;;;94.55;54.25;;;;;;;;;;4806667;29;20043;-75
2021/12/15 14:56:44;;;;;;;89.40;52.38;;;;;;;;;;4805954;29;20059;-75
2021/12/15 14:59:15;;;;;;;90.32;52.88;;;;;;;;;;4832850;29;20450;-75
2021/12/15 15:01:46;;;;;;;74.75;44.28;;;;;;;;;;4866415;29;20041;-77
2021/12/15 15:04:13;;;;;;;77.15;44.85;;;;;;;;;;4866986;29;20072;-76
2021/12/15 15:06:40;;;;;;;79.68;46.35;;;;;;;;;;4877536;29;20052;-76
2021/12/15 15:09:31;;;;;;;79.95;48.95;;;;;;;;;;4866841;29;20072;-77
2021/12/15 15:12:12;;;;;;;96.13;56.63;;;;;;;;;;4866942;29;20444;-77
2021/12/15 15:14:42;;;;;;;93.50;53.72;;;;;;;;;;4868889;29;20038;-75
2021/12/15 15:17:12;;;;;;;77.22;45.72;;;;;;;;;;4888274;29;20036;-76
2021/12/15 15:19:58;;;;;;;88.00;47.75;;;;;;;;;;4911447;29;20013;-79
2021/12/15 15:30:34;;;;;;;82.13;49.08;;;;;;;;;;5060650;23;20079;-78
2021/12/15 15:33:28;;;;;;;108.05;64.30;;;;;;;;;;4915775;29;20032;-79
2021/12/15 15:36:02;;;;;;;104.55;60.90;;;;;;;;;;4943103;28;20035;-75
2021/12/15 15:38:30;;;;;;;108.18;60.45;;;;;;;;;;4910968;29;20083;-76
2021/12/15 15:41:19;;;;;;;83.05;48.97;;;;;;;;;;4910929;29;20028;-77
2021/12/15 15:43:48;;;;;;;84.05;46.83;;;;;;;;;;4929695;29;20036;-74
2021/12/15 15:46:22;;;;;;;81.50;47.63;;;;;;;;;;4931677;29;20020;-73
2021/12/15 15:48:54;;;;;;;96.38;54.22;;;;;;;;;;5519620;23;20015;-77
2021/12/15 15:51:22;;;;;;;91.63;55.30;;;;;;;;;;4906034;29;20117;-78
2021/12/15 15:53:55;;;;;;;117.20;64.28;;;;;;;;;;4919434;29;20052;-75
2021/12/15 15:56:23;;;;;;;238.27;111.13;;;;;;;;;;4891112;29;20041;-76
2021/12/15 15:58:57;;;;;;;217.73;108.82;;;;;;;;;;4881186;29;20045;-78
2021/12/15 16:01:26;;;;;;;221.82;108.07;;;;;;;;;;4889004;29;20041;-74
2021/12/15 16:03:53;;;;;;;242.98;121.03;;;;;;;;;;4882219;29;20029;-73
2021/12/15 16:06:21;;;;;;;176.27;99.85;;;;;;;;;;4882865;29;20041;-74
2021/12/15 16:08:47;;;;;;;137.77;78.20;;;;;;;;;;4877423;29;20116;-74
2021/12/15 16:11:20;;;;;;;121.78;70.07;;;;;;;;;;4876879;29;20055;-76
2021/12/15 16:19:04;;;;;;;111.45;63.72;;;;;;;;;;5257869;23;20290;-75
2021/12/15 16:27:12;;;;;;;195.15;97.70;;;;;;;;;;5359874;23;20107;-78
2021/12/15 16:32:43;;;;;;;143.75;79.03;;;;;;;;;;5463511;23;20060;-75
2021/12/15 16:35:14;;;;;;;131.57;71.72;;;;;;;;;;4900496;29;20398;-75
2021/12/15 16:37:42;;;;;;;118.75;68.30;;;;;;;;;;4915207;29;20029;-74
2021/12/15 16:40:11;;;;;;;117.65;66.20;;;;;;;;;;4903105;29;20130;-74
2021/12/15 16:43:09;;;;;;;128.23;71.40;;;;;;;;;;4904474;29;20248;-74
2021/12/15 16:45:38;;;;;;;152.93;77.43;;;;;;;;;;4835679;29;20042;-74
2021/12/15 16:48:19;;;;;;;188.48;98.93;;;;;;;;;;4837954;29;20050;-73
2021/12/15 16:51:07;;;;;;;161.90;82.57;;;;;;;;;;4839152;29;20053;-73
2021/12/15 16:53:47;;;;;;;128.02;68.28;;;;;;;;;;4853460;29;20114;-78
2021/12/15 16:56:45;;;;;;;122.82;72.22;;;;;;;;;;4869901;29;20054;-78
2021/12/15 16:59:35;;;;;;;118.47;66.03;;;;;;;;;;4810061;29;20509;-72
2021/12/15 17:02:05;;;;;;;104.32;61.72;;;;;;;;;;4798132;29;20043;-72
2021/12/15 17:04:39;;;;;;;103.95;61.47;;;;;;;;;;4806549;29;20054;-72
2021/12/15 17:07:06;;;;;;;103.45;60.60;;;;;;;;;;4810766;29;20043;-73
2021/12/15 17:09:38;;;;;;;99.63;61.50;;;;;;;;;;4813950;29;20146;-74
2021/12/15 17:12:10;;;;;;;95.30;56.72;;;;;;;;;;4800410;29;20049;-74
2021/12/15 17:14:49;;;;;;;86.38;51.60;;;;;;;;;;4810996;29;20043;-73
2021/12/15 17:17:37;;;;;;;76.93;46.40;;;;;;;;;;4816962;29;20145;-78
2021/12/15 17:20:15;;;;;;;74.85;45.85;;;;;;;;;;4802179;29;20038;-78